Time;durP1;ratioP1;P1;durP2;ratioP2;P2;SDS_P1;SDS_P2;PMS_P1;PMS_P2;Temp;Humidity;BMP_temperature;BMP_pressure;BME280_temperature;BME280_humidity;BME280_pressure;Samples;Min_cycle;Max_cycle;Signal;HPM_P1;HPM_P2
2022/04/22 00:01:36;;;;;;;64.43;59.03;;;;;;;22.12;34.08;94852.31;6138404;28;104401;-52
2022/04/22 00:04:38;;;;;;;64.30;58.60;;;;;;;22.11;33.90;94859.50;6138963;28;104216;-52
2022/04/22 00:07:40;;;;;;;63.87;58.47;;;;;;;22.10;34.12;94860.59;6127374;28;103082;-52
2022/04/22 00:14:04;;;;;;;65.63;60.00;;;;;;;22.09;33.96;94875.03;6122745;28;104832;-52
2022/04/22 00:17:06;;;;;;;67.37;61.63;;;;;;;22.11;34.46;94872.84;6137977;28;103052;-52
2022/04/22 00:20:09;;;;;;;65.57;59.97;;;;;;;22.09;34.03;94864.38;6128241;28;104092;-52
2022/04/22 00:23:11;;;;;;;66.23;60.50;;;;;;;22.11;34.36;94848.06;6117575;28;103180;-52
2022/04/22 00:26:13;;;;;;;64.40;58.90;;;;;;;22.10;33.95;94833.97;6114884;28;103017;-52
2022/04/22 00:29:15;;;;;;;68.67;62.53;;;;;;;22.09;34.31;94826.28;6108894;28;103311;-52
2022/04/22 00:32:16;;;;;;;67.43;61.63;;;;;;;22.09;34.33;94816.41;6116884;28;103013;-52
2022/04/22 00:35:18;;;;;;;67.20;61.33;;;;;;;22.10;34.13;94814.53;6137782;28;103029;-52
2022/04/22 00:38:20;;;;;;;66.40;60.80;;;;;;;22.10;34.54;94828.63;6137599;28;104496;-52
2022/04/22 00:41:22;;;;;;;68.40;62.47;;;;;;;22.10;34.05;94830.50;6125911;28;103150;-52
2022/04/22 00:44:24;;;;;;;68.40;62.53;;;;;;;22.09;34.01;94821.72;6137946;28;103116;-52
2022/04/22 00:47:26;;;;;;;70.10;64.20;;;;;;;22.09;34.14;94823.63;6137392;28;103119;-52
2022/04/22 00:50:27;;;;;;;68.83;62.90;;;;;;;22.08;34.05;94836.16;6137455;28;104322;-53
2022/04/22 00:53:30;;;;;;;70.47;64.67;;;;;;;22.05;34.40;94820.78;6103844;28;103166;-52
2022/04/22 00:56:33;;;;;;;68.33;62.43;;;;;;;22.07;34.32;94813.28;6113999;28;103272;-52
2022/04/22 00:59:35;;;;;;;68.63;62.73;;;;;;;22.06;33.97;94813.59;6136174;28;104191;-53
2022/04/22 01:02:37;;;;;;;69.90;64.00;;;;;;;22.06;34.47;94801.03;6137289;28;104566;-52
2022/04/22 01:12:19;;;;;;;74.43;68.13;;;;;;;22.07;34.18;94781.28;6117510;28;102872;-52
2022/04/22 01:15:22;;;;;;;68.20;62.50;;;;;;;22.06;34.46;94795.72;6103979;28;104293;-53
2022/04/22 01:18:23;;;;;;;71.33;65.33;;;;;;;22.04;33.97;94787.25;6113897;28;103026;-55
2022/04/22 01:21:25;;;;;;;68.23;62.37;;;;;;;22.07;34.17;94783.19;6132079;28;103205;-55
2022/04/22 01:24:27;;;;;;;69.23;63.13;;;;;;;22.06;33.88;94771.72;6133836;28;103295;-54
2022/04/22 01:27:30;;;;;;;69.77;63.87;;;;;;;22.08;34.37;94755.44;6128860;28;104194;-55
2022/04/22 01:30:32;;;;;;;67.80;61.93;;;;;;;22.06;34.02;94736.31;6136733;28;102956;-55
2022/04/22 01:33:34;;;;;;;70.40;64.40;;;;;;;22.04;34.26;94728.63;6117622;28;104257;-57
2022/04/22 01:36:36;;;;;;;70.17;64.33;;;;;;;22.05;34.13;94719.53;6136905;28;103186;-56
2022/04/22 01:39:37;;;;;;;67.30;61.60;;;;;;;22.04;33.91;94701.19;6126145;28;103673;-56
2022/04/22 01:42:40;;;;;;;66.83;61.07;;;;;;;22.05;34.14;94713.44;6137054;28;103296;-56
2022/04/22 01:45:42;;;;;;;67.57;61.97;;;;;;;22.04;34.47;94723.31;6137207;28;104317;-57
2022/04/22 01:48:43;;;;;;;70.33;64.30;;;;;;;22.04;34.29;94725.97;6131955;28;103795;-57
2022/04/22 01:51:45;;;;;;;67.17;61.37;;;;;;;22.03;34.00;94732.38;6129553;28;103759;-54
2022/04/22 01:54:50;;;;;;;68.73;62.90;;;;;;;22.04;33.93;94744.63;6136088;28;104163;-57
2022/04/22 01:57:53;;;;;;;69.17;63.17;;;;;;;22.05;34.25;94746.19;6137012;28;103164;-56
2022/04/22 02:00:54;;;;;;;67.13;61.47;;;;;;;21.99;34.05;94739.41;6126076;28;103439;-57
2022/04/22 02:03:56;;;;;;;69.47;63.40;;;;;;;22.03;33.95;94751.03;6112842;28;103598;-58
2022/04/22 02:06:59;;;;;;;68.60;62.80;;;;;;;22.03;33.89;94753.72;6125924;28;103346;-57
2022/04/22 02:10:01;;;;;;;67.30;61.50;;;;;;;22.04;34.26;94767.81;6136854;28;104219;-57
2022/04/22 02:13:04;;;;;;;66.00;60.53;;;;;;;22.03;34.14;94775.03;6119586;28;103484;-56
2022/04/22 02:16:07;;;;;;;67.43;61.73;;;;;;;22.02;33.88;94778.78;6135894;28;103428;-57
2022/04/22 02:19:09;;;;;;;65.97;60.30;;;;;;;22.02;34.20;94788.66;6136610;28;103260;-57
2022/04/22 02:22:11;;;;;;;68.20;62.37;;;;;;;22.02;34.36;94778.00;6126103;28;103095;-57
2022/04/22 02:25:13;;;;;;;65.30;59.80;;;;;;;22.02;34.49;94792.09;6108606;28;104190;-57
2022/04/22 02:28:33;;;;;;;68.67;62.70;;;;;;;22.02;33.98;94786.78;6136445;28;103959;-56
2022/04/22 02:31:35;;;;;;;65.33;59.73;;;;;;;22.03;34.46;94772.34;6114180;28;104002;-56
2022/04/22 02:34:37;;;;;;;66.67;61.20;;;;;;;22.02;34.17;94757.47;6125925;28;104662;-57
2022/04/22 02:37:39;;;;;;;65.73;60.37;;;;;;;22.00;33.92;94753.53;6135022;28;103020;-57
2022/04/22 02:47:40;;;;;;;64.37;58.80;;;;;;;22.00;33.92;94748.97;6098840;28;104019;-58
2022/04/22 02:50:42;;;;;;;64.70;59.20;;;;;;;22.01;34.35;94747.09;6136192;28;103322;-56
2022/04/22 02:53:44;;;;;;;64.27;58.87;;;;;;;22.03;33.90;94752.94;6116327;28;104167;-57
2022/04/22 02:56:46;;;;;;;62.73;57.30;;;;;;;22.01;34.42;94753.25;6128361;28;103295;-55
2022/04/22 02:59:48;;;;;;;61.80;56.60;;;;;;;22.02;34.24;94748.69;6129936;28;104049;-57
2022/04/22 03:02:50;;;;;;;61.90;56.60;;;;;;;22.01;33.90;94741.78;6135549;28;104404;-57
2022/04/22 03:05:52;;;;;;;59.47;54.47;;;;;;;22.01;34.10;94753.25;6138528;28;104196;-58
2022/04/22 03:08:54;;;;;;;59.70;54.50;;;;;;;22.04;34.63;94747.28;6124895;28;103152;-57
2022/04/22 03:11:55;;;;;;;58.70;53.70;;;;;;;22.03;34.15;94750.25;6137497;28;103151;-58
2022/04/22 03:14:57;;;;;;;57.17;52.23;;;;;;;22.03;34.17;94751.03;6139380;28;103337;-57
2022/04/22 03:18:00;;;;;;;54.53;50.03;;;;;;;22.03;34.57;94756.38;6140066;28;103203;-58
2022/04/22 03:21:02;;;;;;;54.73;50.13;;;;;;;22.03;34.59;94764.38;6114319;28;103104;-57
2022/04/22 03:24:03;;;;;;;51.70;47.50;;;;;;;22.04;34.21;94770.47;6119023;28;104359;-56
2022/04/22 03:27:06;;;;;;;53.27;48.83;;;;;;;22.04;34.09;94771.25;6138725;28;103252;-57
2022/04/22 03:30:08;;;;;;;55.97;51.07;;;;;;;22.03;34.18;94774.25;6131536;28;104274;-57
2022/04/22 03:33:10;;;;;;;53.77;49.37;;;;;;;22.02;34.33;94778.78;6104540;28;104015;-57
2022/04/22 03:36:15;;;;;;;54.17;49.57;;;;;;;22.04;34.51;94765.16;6130778;28;103960;-56
2022/04/22 03:39:22;;;;;;;52.97;48.47;;;;;;;22.03;34.51;94777.69;6138552;28;103295;-56
2022/04/22 03:42:23;;;;;;;52.97;48.43;;;;;;;22.04;34.58;94781.13;6133901;28;103253;-57
2022/04/22 03:45:25;;;;;;;52.70;48.20;;;;;;;22.03;34.11;94780.34;6133007;28;104210;-56
2022/04/22 03:48:27;;;;;;;53.70;49.30;;;;;;;22.03;34.68;94793.69;6137970;28;103536;-57
2022/04/22 03:51:29;;;;;;;52.97;48.50;;;;;;;22.04;34.46;94781.91;6114256;28;103005;-56
2022/04/22 03:54:30;;;;;;;52.20;47.80;;;;;;;22.04;34.50;94795.25;6113302;28;103264;-57
2022/04/22 04:00:53;;;;;;;51.43;47.17;;;;;;;22.04;34.17;94805.91;6125955;28;104290;-57
2022/04/22 04:03:55;;;;;;;52.20;47.80;;;;;;;22.04;34.58;94797.13;6135528;28;104249;-57
2022/04/22 04:06:56;;;;;;;53.83;49.17;;;;;;;22.02;34.30;94797.44;6140722;28;105154;-56
2022/04/22 04:16:39;;;;;;;51.40;47.20;;;;;;;22.03;34.49;94779.56;6131522;28;104512;-57
2022/04/22 04:23:17;;;;;;;50.63;46.50;;;;;;;22.02;34.58;94781.44;6138402;28;103834;-56
2022/04/22 04:26:30;;;;;;;52.43;48.00;;;;;;;22.04;34.02;94783.81;6138442;28;103477;-58
2022/04/22 04:29:34;;;;;;;49.23;45.20;;;;;;;22.04;34.23;94776.59;6125108;28;104521;-57
2022/04/22 04:32:35;;;;;;;51.03;46.70;;;;;;;22.04;34.23;94770.47;6137925;28;104086;-57
2022/04/22 04:35:44;;;;;;;50.27;45.97;;;;;;;22.04;34.52;94759.81;6137125;28;103547;-56
2022/04/22 04:38:46;;;;;;;51.30;46.90;;;;;;;22.03;34.96;94761.69;6135300;28;104072;-56
2022/04/22 04:41:47;;;;;;;50.40;46.00;;;;;;;22.05;34.66;94761.38;6121922;28;103982;-57
2022/04/22 04:44:50;;;;;;;50.80;46.50;;;;;;;22.05;35.08;94756.84;6137544;28;103036;-57
2022/04/22 04:47:52;;;;;;;48.23;44.20;;;;;;;22.04;35.04;94749.94;6137919;28;104261;-57
2022/04/22 04:50:55;;;;;;;49.80;45.40;;;;;;;22.04;35.64;94765.16;6112247;28;103167;-56
2022/04/22 04:53:56;;;;;;;49.13;44.90;;;;;;;22.03;35.77;94764.38;6136234;28;104423;-57
2022/04/22 04:56:58;;;;;;;49.00;44.73;;;;;;;22.03;35.79;94759.03;6136945;28;102840;-52
2022/04/22 05:00:03;;;;;;;48.87;44.53;;;;;;;22.04;35.67;94765.16;6131035;28;104027;-55
2022/04/22 05:03:05;;;;;;;49.23;44.73;;;;;;;22.03;35.69;94763.59;6112604;28;103073;-55
2022/04/22 05:06:08;;;;;;;45.03;41.07;;;;;;;22.03;35.90;94764.38;6135778;28;103368;-56
2022/04/22 05:09:10;;;;;;;47.67;43.63;;;;;;;22.03;36.08;94759.03;6136852;28;103209;-56
2022/04/22 05:12:12;;;;;;;46.07;42.10;;;;;;;22.03;35.73;94748.38;6120634;28;104534;-57
2022/04/22 05:15:14;;;;;;;44.80;40.93;;;;;;;22.05;36.06;94729.41;6117345;28;104186;-60
2022/04/22 05:18:16;;;;;;;47.90;43.87;;;;;;;22.03;35.84;94719.06;6120749;28;104094;-57
2022/04/22 05:21:17;;;;;;;46.80;42.57;;;;;;;22.04;36.08;94720.63;6136381;28;103107;-56
2022/04/22 05:24:20;;;;;;;45.57;41.70;;;;;;;22.03;35.97;94727.06;6131647;28;103926;-54
2022/04/22 05:27:21;;;;;;;43.50;39.83;;;;;;;22.03;36.20;94719.06;6128936;28;104832;-57
2022/04/22 05:33:43;;;;;;;43.97;40.27;;;;;;;22.02;36.52;94687.41;6136398;28;104266;-56
2022/04/22 05:36:45;;;;;;;45.20;41.30;;;;;;;22.03;35.99;94660.44;6105887;28;104409;-57
2022/04/22 05:39:47;;;;;;;44.03;40.37;;;;;;;22.03;36.39;94643.69;6124775;28;103418;-57
2022/04/22 05:42:53;;;;;;;43.53;39.83;;;;;;;22.03;36.18;94625.03;6144292;28;104463;-56
2022/04/22 05:45:54;;;;;;;42.27;38.70;;;;;;;22.03;36.09;94580.50;6131872;28;102973;-56
2022/04/22 05:48:56;;;;;;;41.53;38.03;;;;;;;22.02;36.05;94554.97;6125108;28;104341;-56
2022/04/22 05:51:58;;;;;;;41.87;38.17;;;;;;;22.02;35.90;94592.28;6112826;28;103259;-56
2022/04/22 05:55:03;;;;;;;34.13;31.17;;;;;;;21.96;36.40;94592.75;6137233;28;104164;-55
2022/04/22 05:58:05;;;;;;;18.40;16.80;;;;;;;21.79;36.22;94588.19;6135165;28;103287;-54
2022/04/22 06:01:07;;;;;;;11.00;10.10;;;;;;;19.53;39.33;94585.72;6107084;28;103353;-56
2022/04/22 06:04:09;;;;;;;10.13;9.20;;;;;;;19.83;39.00;94583.44;6112632;28;104023;-55
2022/04/22 06:07:11;;;;;;;10.77;9.73;;;;;;;20.60;37.71;94569.81;6128106;28;104516;-53
2022/04/22 06:10:32;;;;;;;8.33;7.50;;;;;;;21.05;36.51;94569.66;6119384;28;104311;-53
2022/04/22 06:13:34;;;;;;;9.23;8.43;;;;;;;21.34;36.90;94571.72;6135120;28;103053;-57
2022/04/22 06:16:37;;;;;;;8.30;7.60;;;;;;;21.51;36.15;94577.09;6135751;28;103554;-57
2022/04/22 06:19:39;;;;;;;9.03;7.30;;;;;;;21.62;36.06;94567.66;6133909;28;103280;-57
2022/04/22 06:22:41;;;;;;;9.37;8.60;;;;;;;21.66;36.14;94563.28;6128061;28;104219;-57
2022/04/22 06:25:46;;;;;;;8.83;8.13;;;;;;;21.76;35.72;94584.25;6136817;28;104133;-57
2022/04/22 06:28:48;;;;;;;9.33;8.43;;;;;;;21.84;36.08;94584.59;6136267;28;104037;-56
2022/04/22 06:31:50;;;;;;;9.17;8.27;;;;;;;21.83;36.08;94585.69;6118185;28;104170;-55
2022/04/22 06:34:52;;;;;;;10.20;9.30;;;;;;;21.77;35.89;94585.03;6107761;28;102963;-57
2022/04/22 06:37:54;;;;;;;9.33;8.60;;;;;;;21.69;36.63;94583.97;6135047;28;104292;-57
2022/04/22 06:45:46;;;;;;;9.10;8.20;;;;;;;21.70;36.58;94566.09;6129121;28;103345;-55
2022/04/22 06:47:49;;;;;;;11.43;8.23;;;;;;;21.74;35.87;94580.34;6136380;28;104272;-56
2022/04/22 06:50:51;;;;;;;8.17;7.20;;;;;;;21.76;36.25;94570.16;6129950;28;104110;-57
2022/04/22 06:53:54;;;;;;;7.77;6.97;;;;;;;21.77;36.11;94569.84;6136138;28;103207;-57
2022/04/22 06:56:56;;;;;;;10.10;9.10;;;;;;;21.70;37.02;94568.78;6126137;28;103878;-58
2022/04/22 07:00:04;;;;;;;9.13;8.30;;;;;;;21.50;36.68;94573.59;6133925;28;103937;-57
2022/04/22 07:03:06;;;;;;;8.97;7.80;;;;;;;21.44;36.44;94553.56;6134774;28;103262;-57
2022/04/22 07:06:09;;;;;;;9.73;7.17;;;;;;;21.44;36.45;94550.13;6136038;28;103718;-57
2022/04/22 07:09:12;;;;;;;8.90;7.30;;;;;;;21.46;36.34;94555.91;6125232;28;103207;-57
2022/04/22 07:12:16;;;;;;;9.10;6.90;;;;;;;21.56;36.14;94546.84;6135512;28;102987;-55
2022/04/22 07:15:18;;;;;;;6.10;5.50;;;;;;;21.76;35.50;94554.19;6135192;28;104428;-56
2022/04/22 07:18:20;;;;;;;5.80;5.30;;;;;;;21.96;35.17;94548.22;6129710;28;104082;-57
2022/04/22 07:21:22;;;;;;;6.00;5.43;;;;;;;22.14;35.20;94556.97;6129542;28;103050;-57
2022/04/22 07:24:24;;;;;;;8.03;6.10;;;;;;;22.28;35.00;94567.44;6136047;28;103805;-57
2022/04/22 07:27:27;;;;;;;6.07;5.47;;;;;;;22.38;35.35;94559.09;6134904;28;103118;-56
2022/04/22 07:30:29;;;;;;;5.90;5.40;;;;;;;22.47;35.37;94543.06;6124623;28;104190;-56
2022/04/22 07:33:31;;;;;;;5.90;5.40;;;;;;;22.55;35.23;94552.94;6134216;28;104148;-55
2022/04/22 07:36:33;;;;;;;7.00;6.30;;;;;;;22.56;35.62;94546.50;6135471;28;103122;-56
2022/04/22 07:39:38;;;;;;;6.87;6.03;;;;;;;22.64;35.81;94546.47;6134974;28;103587;-56
2022/04/22 07:49:32;;;;;;;5.97;5.37;;;;;;;22.82;36.39;94525.03;6134613;28;103051;-57
2022/04/22 07:52:36;;;;;;;5.53;5.13;;;;;;;22.84;36.52;94514.81;6130892;28;103060;-57
2022/04/22 07:55:38;;;;;;;5.87;5.27;;;;;;;22.85;36.67;94527.06;6138935;28;103504;-57
2022/04/22 07:58:40;;;;;;;6.10;5.60;;;;;;;22.92;36.99;94527.34;6139136;28;104307;-57
2022/04/22 08:01:41;;;;;;;5.43;5.00;;;;;;;22.94;36.57;94531.25;6139185;28;103329;-57
2022/04/22 08:04:44;;;;;;;6.33;5.83;;;;;;;22.93;37.07;94524.34;6128809;28;104972;-56
2022/04/22 08:07:46;;;;;;;5.57;5.17;;;;;;;22.89;36.98;94526.09;6139220;28;104122;-57
2022/04/22 08:10:48;;;;;;;5.50;5.00;;;;;;;22.90;36.73;94548.22;6125275;28;104187;-56
2022/04/22 08:13:49;;;;;;;5.60;5.17;;;;;;;22.94;36.65;94544.59;6138611;28;104000;-57
2022/04/22 08:16:51;;;;;;;4.97;4.67;;;;;;;22.96;36.87;94544.25;6128713;28;103724;-58
2022/04/22 08:19:53;;;;;;;8.30;5.20;;;;;;;22.97;36.88;94551.16;6138618;28;104745;-58
2022/04/22 08:22:54;;;;;;;7.47;5.10;;;;;;;22.95;37.21;94548.81;6139243;28;103115;-56
2022/04/22 08:25:57;;;;;;;8.80;5.00;;;;;;;23.01;36.85;94549.41;6136124;28;103752;-56
2022/04/22 08:28:59;;;;;;;16.60;5.70;;;;;;;23.06;37.24;94549.25;6131319;28;102889;-57
2022/04/22 08:32:01;;;;;;;6.13;5.63;;;;;;;23.06;37.28;94540.44;6138563;28;103438;-57
2022/04/22 08:35:04;;;;;;;7.33;5.10;;;;;;;23.15;37.62;94535.81;6136736;28;104267;-58
2022/04/22 08:38:09;;;;;;;10.73;5.20;;;;;;;23.11;37.58;94526.91;6128922;28;104307;-57
2022/04/22 08:41:11;;;;;;;13.03;6.30;;;;;;;23.12;37.89;94515.13;6138157;28;103544;-56
2022/04/22 08:44:13;;;;;;;12.47;6.33;;;;;;;23.13;37.87;94508.69;6138467;28;103078;-58
2022/04/22 08:50:37;;;;;;;17.83;11.33;;;;;;;23.05;37.95;94504.97;6135459;28;104235;-58
2022/04/22 08:53:42;;;;;;;16.77;10.60;;;;;;;23.01;37.05;94504.03;6138054;28;103120;-58
2022/04/22 08:56:44;;;;;;;15.87;10.37;;;;;;;22.97;38.09;94503.13;6161078;28;103230;-57
2022/04/22 08:59:46;;;;;;;13.80;9.10;;;;;;;22.97;37.96;94493.25;6146520;28;103455;-57
2022/04/22 09:02:50;;;;;;;14.60;8.40;;;;;;;22.99;37.67;94506.25;6130315;28;103977;-57
2022/04/22 09:05:52;;;;;;;8.03;7.23;;;;;;;22.95;37.24;94476.00;6137530;28;104296;-59
2022/04/22 09:08:57;;;;;;;10.47;7.87;;;;;;;22.96;37.11;94470.34;6134167;28;103019;-57
2022/04/22 09:12:10;;;;;;;8.83;7.93;;;;;;;22.95;37.16;94465.31;6116763;28;104195;-57
2022/04/22 09:15:12;;;;;;;6.33;5.73;;;;;;;23.02;36.49;94460.25;6122722;28;104059;-58
2022/04/22 09:18:14;;;;;;;6.90;6.20;;;;;;;23.05;37.06;94461.50;6137938;28;104096;-58
2022/04/22 09:21:17;;;;;;;9.03;6.10;;;;;;;23.01;37.00;94458.66;6118743;28;103390;-53
2022/04/22 09:24:19;;;;;;;8.47;5.93;;;;;;;23.00;36.88;94460.56;6119289;28;103257;-58
2022/04/22 09:27:38;;;;;;;5.43;4.93;;;;;;;23.00;36.10;94468.56;6139537;28;103126;-57
2022/04/22 09:30:55;;;;;;;5.60;4.77;;;;;;;23.00;35.87;94457.13;6141190;28;104130;-58
2022/04/22 09:33:57;;;;;;;8.00;5.07;;;;;;;22.98;35.65;94464.66;6137558;28;102951;-58
2022/04/22 09:44:15;;;;;;;6.20;4.57;;;;;;;22.87;36.18;94455.50;6137768;28;103484;-57
2022/04/22 09:47:16;;;;;;;5.57;4.80;;;;;;;22.88;36.36;94457.06;6117043;28;104740;-56
2022/04/22 09:50:38;;;;;;;8.83;4.83;;;;;;;22.88;35.82;94457.06;6134968;28;104347;-58
2022/04/22 09:53:39;;;;;;;5.27;4.53;;;;;;;22.84;35.76;94440.13;6128490;28;103098;-58
2022/04/22 09:56:57;;;;;;;5.40;4.60;;;;;;;22.85;35.98;94431.00;6129702;28;103278;-59
2022/04/22 09:59:59;;;;;;;5.10;4.60;;;;;;;22.83;35.77;94430.56;6105304;28;104276;-57
2022/04/22 10:03:01;;;;;;;4.73;4.30;;;;;;;22.76;35.94;94441.75;6134124;28;104044;-57
2022/04/22 10:06:06;;;;;;;4.97;4.40;;;;;;;22.69;35.68;94428.94;6132890;28;104216;-57
2022/04/22 10:09:28;;;;;;;6.73;4.40;;;;;;;22.65;35.28;94414.69;6150218;22;105339;-79
2022/04/22 10:12:33;;;;;;;7.40;4.53;;;;;;;22.67;35.15;94420.47;6155790;28;105266;-77
2022/04/22 10:15:37;;;;;;;4.77;4.30;;;;;;;22.69;35.28;94407.63;6153130;28;103366;-78
2022/04/22 10:18:41;;;;;;;6.03;4.33;;;;;;;22.70;35.84;94406.50;6155158;22;103296;-77
2022/04/22 10:21:45;;;;;;;5.90;4.67;;;;;;;22.65;35.85;94381.91;6168254;28;103177;-80
2022/04/22 10:24:50;;;;;;;4.30;3.90;;;;;;;22.60;35.73;94382.09;6167508;28;104180;-84
2022/04/22 10:27:53;;;;;;;4.83;4.40;;;;;;;22.58;35.32;94371.75;6159799;28;102912;-78
2022/04/22 10:31:00;;;;;;;5.20;4.50;;;;;;;22.37;35.60;94363.72;6170226;28;103782;-75
2022/04/22 10:34:07;;;;;;;5.43;4.90;;;;;;;21.93;36.72;94353.63;6164671;28;105697;-77
2022/04/22 10:37:24;;;;;;;6.53;4.57;;;;;;;22.04;36.88;94355.59;6167782;28;102733;-79
2022/04/22 10:40:26;;;;;;;5.10;4.63;;;;;;;22.13;36.74;94365.41;6152522;28;103485;-77
2022/04/22 10:43:29;;;;;;;7.20;4.87;;;;;;;21.64;37.40;94357.78;6152244;28;103190;-78
2022/04/22 10:49:51;;;;;;;5.50;5.00;;;;;;;20.87;38.28;94340.88;6168768;28;103184;-77
2022/04/22 10:53:01;;;;;;;5.60;4.70;;;;;;;20.76;38.78;94350.28;6152310;28;103047;-78
2022/04/22 10:56:33;;;;;;;6.43;4.77;;;;;;;21.22;38.21;94340.84;6154576;28;104112;-77
2022/04/22 10:59:34;;;;;;;7.40;5.13;;;;;;;21.46;37.98;94350.94;6148072;28;103936;-79
2022/04/22 11:02:41;;;;;;;5.60;5.00;;;;;;;21.56;37.36;94350.63;6170217;28;105508;-79
2022/04/22 11:05:50;;;;;;;8.10;5.40;;;;;;;21.85;37.18;94339.25;6162372;28;105984;-81
2022/04/22 11:09:02;;;;;;;6.30;4.90;;;;;;;22.10;37.96;94338.31;6134343;28;103818;-79
2022/04/22 11:12:04;;;;;;;5.47;4.97;;;;;;;22.19;37.55;94332.19;6138955;28;102693;-80
2022/04/22 11:15:10;;;;;;;5.23;4.73;;;;;;;22.20;37.97;94309.75;6128996;28;103707;-84
2022/04/22 11:18:14;;;;;;;5.00;4.50;;;;;;;22.33;37.36;94319.34;6117437;28;102844;-80
2022/04/22 11:21:19;;;;;;;5.27;4.77;;;;;;;22.36;37.81;94310.75;6143246;28;102705;-79
2022/04/22 11:24:29;;;;;;;6.20;4.40;;;;;;;22.37;37.77;94315.75;6137215;28;107337;-79
2022/04/22 11:27:30;;;;;;;5.70;5.20;;;;;;;22.36;37.89;94321.41;6148082;28;105330;-79
2022/04/22 11:30:33;;;;;;;5.30;4.70;;;;;;;22.38;37.69;94309.31;6122555;28;103824;-81
2022/04/22 11:33:45;;;;;;;5.90;5.40;;;;;;;22.41;37.55;94315.88;6133689;28;103032;-81
2022/04/22 11:36:48;;;;;;;5.20;4.80;;;;;;;22.40;37.73;94292.97;6145871;28;105027;-79
2022/04/22 11:39:50;;;;;;;5.87;4.80;;;;;;;22.38;38.11;94289.84;6145447;28;103137;-80
2022/04/22 11:42:54;;;;;;;5.40;5.00;;;;;;;22.39;37.95;94291.41;6137495;28;102991;-82
2022/04/22 11:45:58;;;;;;;6.00;4.77;;;;;;;22.38;37.80;94284.53;6146523;28;104149;-80
2022/04/22 11:49:05;;;;;;;5.20;4.70;;;;;;;22.41;38.17;94266.00;6143321;28;103501;-82
2022/04/22 11:52:07;;;;;;;5.57;5.07;;;;;;;22.36;38.29;94268.88;6136508;28;103566;-81
2022/04/22 11:55:09;;;;;;;5.43;4.93;;;;;;;22.39;38.03;94264.75;6154906;28;103723;-81
2022/04/22 11:58:12;;;;;;;6.03;5.47;;;;;;;22.39;38.46;94251.44;6142597;28;105429;-81
2022/04/22 12:08:01;;;;;;;5.57;5.17;;;;;;;22.41;38.33;94257.22;6150131;28;104377;-82
2022/04/22 12:11:03;;;;;;;5.67;5.23;;;;;;;22.36;38.61;94241.44;6166932;28;104880;-82
2022/04/22 12:14:26;;;;;;;5.80;5.30;;;;;;;22.39;38.49;94259.44;6147750;28;103432;-82
2022/04/22 12:17:29;;;;;;;5.50;5.10;;;;;;;22.42;38.01;94267.56;6149670;28;102623;-80
2022/04/22 12:20:32;;;;;;;5.50;5.10;;;;;;;22.42;38.41;94254.22;6147553;28;104334;-80
2022/04/22 12:23:40;;;;;;;5.57;5.07;;;;;;;22.33;38.27;94228.72;6124893;28;103151;-82
2022/04/22 12:26:45;;;;;;;5.77;5.17;;;;;;;22.40;38.41;94237.00;6153025;28;104051;-81
2022/04/22 12:30:00;;;;;;;5.80;5.33;;;;;;;22.45;38.40;94230.69;6136758;28;103461;-83
2022/04/22 12:33:03;;;;;;;6.60;6.00;;;;;;;22.43;38.37;94217.69;6144561;28;102788;-82
2022/04/22 12:36:10;;;;;;;6.10;5.60;;;;;;;22.41;39.03;94209.22;6138035;28;102612;-81
2022/04/22 12:39:32;;;;;;;6.03;5.53;;;;;;;22.33;38.93;94202.84;6124028;28;103580;-81
2022/04/22 12:42:36;;;;;;;7.17;6.47;;;;;;;22.43;38.91;94209.69;6136022;28;103312;-79
2022/04/22 12:52:32;;;;;;;6.60;6.10;;;;;;;22.40;39.44;94203.13;6127917;28;105843;-80
2022/04/22 12:55:35;;;;;;;6.93;6.33;;;;;;;22.40;39.29;94189.00;6129559;28;103393;-83
2022/04/22 12:58:53;;;;;;;7.80;7.20;;;;;;;22.38;39.31;94178.69;6117586;28;103155;-79
2022/04/22 13:02:06;;;;;;;13.40;12.30;;;;;;;22.38;38.32;94194.69;6134334;28;103644;-81
2022/04/22 13:05:19;;;;;;;16.70;15.40;;;;;;;22.33;38.43;94184.19;6140460;28;103138;-80
2022/04/22 13:08:21;;;;;;;19.50;17.70;;;;;;;22.41;38.42;94187.91;6123488;28;105596;-78
2022/04/22 13:11:23;;;;;;;21.07;19.30;;;;;;;22.45;38.60;94177.34;6156619;28;103580;-78
2022/04/22 13:14:24;;;;;;;21.57;19.47;;;;;;;22.43;38.85;94175.03;6151280;28;103549;-79
2022/04/22 13:17:26;;;;;;;21.30;19.37;;;;;;;22.40;38.85;94165.03;6160433;28;104090;-80
2022/04/22 13:20:28;;;;;;;23.43;21.33;;;;;;;22.44;38.59;94167.81;6128131;28;106024;-80
2022/04/22 13:23:31;;;;;;;27.40;24.90;;;;;;;22.53;39.05;94177.28;6140635;28;102811;-78
2022/04/22 13:26:33;;;;;;;29.07;26.37;;;;;;;22.56;38.30;94173.97;6149914;28;102780;-79
2022/04/22 13:29:35;;;;;;;29.57;27.03;;;;;;;22.58;38.82;94182.44;6172568;28;103643;-77
2022/04/22 13:32:38;;;;;;;33.87;30.97;;;;;;;22.55;38.51;94177.72;6153578;28;104068;-80
2022/04/22 13:35:40;;;;;;;33.33;30.40;;;;;;;22.54;38.74;94175.41;6148354;28;106449;-79
2022/04/22 13:38:43;;;;;;;37.77;34.57;;;;;;;22.57;38.87;94159.53;6142759;28;104502;-81
2022/04/22 13:41:45;;;;;;;35.80;32.70;;;;;;;22.53;38.56;94147.97;6145011;28;103531;-80
2022/04/22 13:54:48;;;;;;;40.70;36.83;;;;;;;22.50;38.20;94155.81;6150791;23;105044;-54
2022/04/22 13:57:51;;;;;;;41.47;37.53;;;;;;;22.49;38.50;94155.03;6143143;28;103609;-57
2022/04/22 14:01:03;;;;;;;40.40;36.87;;;;;;;22.47;38.23;94143.94;6156636;28;104831;-56
2022/04/22 14:04:06;;;;;;;40.90;36.90;;;;;;;22.50;38.48;94137.94;6156645;28;104027;-56
2022/04/22 14:07:08;;;;;;;41.03;37.03;;;;;;;22.58;38.91;94139.75;6164338;28;104220;-56
2022/04/22 14:10:10;;;;;;;40.10;36.70;;;;;;;22.64;38.99;94132.31;6148822;28;103189;-61
2022/04/22 14:13:13;;;;;;;39.30;35.20;;;;;;;22.66;38.99;94125.53;6146992;28;104295;-56
2022/04/22 14:16:15;;;;;;;39.40;36.03;;;;;;;22.67;39.16;94137.75;6144788;28;103289;-55
2022/04/22 14:19:18;;;;;;;37.40;34.00;;;;;;;22.70;38.88;94120.34;6146453;28;103103;-57
2022/04/22 14:22:19;;;;;;;37.07;33.80;;;;;;;22.73;39.05;94113.56;6156221;28;103283;-56
2022/04/22 14:25:21;;;;;;;36.50;33.10;;;;;;;22.72;39.32;94106.69;6156550;28;104225;-57
2022/04/22 14:28:24;;;;;;;34.83;31.63;;;;;;;22.73;39.09;94095.69;6154930;28;103315;-57
2022/04/22 14:31:25;;;;;;;35.47;32.07;;;;;;;22.71;39.38;94103.22;6151090;28;103678;-56
2022/04/22 14:34:27;;;;;;;32.93;30.03;;;;;;;22.70;39.75;94109.69;6156383;28;103111;-55
2022/04/22 14:37:29;;;;;;;32.33;29.50;;;;;;;22.72;39.29;94117.34;6156389;28;106091;-56
2022/04/22 14:40:31;;;;;;;33.67;30.67;;;;;;;22.72;39.75;94099.47;6170303;28;104267;-56
2022/04/22 14:43:33;;;;;;;31.53;28.83;;;;;;;22.67;39.56;94100.44;6162171;28;103324;-55
2022/04/22 14:46:39;;;;;;;31.83;29.13;;;;;;;22.64;39.63;94095.00;6166156;28;105161;-56
2022/04/22 14:49:41;;;;;;;32.20;29.50;;;;;;;22.61;39.39;94085.00;6156734;28;104037;-55
2022/04/22 14:52:43;;;;;;;32.30;29.43;;;;;;;22.58;39.33;94075.78;6179198;28;104047;-56
2022/04/22 14:55:45;;;;;;;31.53;28.83;;;;;;;22.61;39.69;94069.78;6183967;28;103032;-55
2022/04/22 14:58:49;;;;;;;32.53;29.87;;;;;;;22.59;39.55;94087.22;6150652;28;103305;-55
2022/04/22 15:01:50;;;;;;;32.40;29.77;;;;;;;22.58;39.61;94089.09;6151929;28;103317;-56
2022/04/22 15:04:52;;;;;;;33.13;30.30;;;;;;;22.68;39.75;94091.34;6145370;28;103216;-55
2022/04/22 15:07:55;;;;;;;32.20;29.10;;;;;;;22.74;39.66;94072.44;6158898;28;103166;-55
2022/04/22 15:10:58;;;;;;;30.93;28.33;;;;;;;22.74;39.53;94081.22;6167621;28;104298;-56
2022/04/22 15:14:03;;;;;;;30.20;27.70;;;;;;;22.75;39.91;94084.66;6161118;28;104136;-57
2022/04/22 15:17:05;;;;;;;24.93;22.70;;;;;;;22.65;39.74;94091.22;6155736;28;104069;-56
2022/04/22 15:26:54;;;;;;;16.87;15.33;;;;;;;22.63;39.29;94074.75;6150786;28;102994;-56
2022/04/22 15:29:57;;;;;;;17.57;15.93;;;;;;;22.60;39.80;94078.88;6162424;28;104293;-55
2022/04/22 15:32:59;;;;;;;16.27;14.87;;;;;;;22.61;39.83;94056.44;6166444;28;103008;-56